Time;durP1;ratioP1;P1;durP2;ratioP2;P2;SDS_P1;SDS_P2;PMS_P1;PMS_P2;Temp;Humidity;BMP_temperature;BMP_pressure;BME280_temperature;BME280_humidity;BME280_pressure;Samples;Min_cycle;Max_cycle;Signal;HPM_P1;HPM_P2
2021/12/08 00:00:59;;;;;;;11.25;4.97;;;;;;;3.29;93.83;99197.97;4972305;28;20028;-69
2021/12/08 00:03:28;;;;;;;9.98;5.07;;;;;;;3.29;93.76;99193.66;4968362;28;20108;-69
2021/12/08 00:05:53;;;;;;;;;;;;;;;3.39;93.21;99198.88;4972874;28;20101;-68
2021/12/08 00:08:20;;;;;;;9.00;4.72;;;;;;;3.34;93.47;99180.50;4952877;28;20009;-70
2021/12/08 00:13:27;;;;;;;8.90;4.63;;;;;;;3.30;93.95;99174.78;4963553;28;20074;-68
2021/12/08 00:15:56;;;;;;;7.70;4.57;;;;;;;3.36;94.37;99181.19;4965019;28;20030;-69
2021/12/08 00:18:25;;;;;;;8.52;4.57;;;;;;;3.39;94.40;99178.38;4959327;28;20066;-70
2021/12/08 00:20:53;;;;;;;7.82;4.03;;;;;;;3.41;94.57;99176.50;4973360;28;20027;-69
2021/12/08 00:23:20;;;;;;;9.57;4.15;;;;;;;3.46;94.49;99176.97;4972174;28;20063;-69
2021/12/08 00:25:46;;;;;;;9.20;4.15;;;;;;;3.46;94.67;99176.97;4952603;28;20023;-68
2021/12/08 00:28:13;;;;;;;8.98;3.88;;;;;;;3.51;95.11;99174.84;4972406;28;20058;-68
2021/12/08 00:30:44;;;;;;;9.98;3.80;;;;;;;3.50;95.30;99175.81;4971813;28;20086;-69
2021/12/08 00:33:11;;;;;;;7.55;4.00;;;;;;;3.55;95.11;99181.34;4971541;28;20031;-68
2021/12/08 00:35:37;;;;;;;8.13;4.10;;;;;;;3.57;95.19;99192.31;4972326;28;20022;-69
2021/12/08 00:38:04;;;;;;;8.20;4.18;;;;;;;3.60;95.37;99186.13;4954384;28;20030;-68
2021/12/08 00:40:30;;;;;;;5.90;3.90;;;;;;;3.63;95.00;99184.16;4972193;28;20042;-68
2021/12/08 00:42:56;;;;;;;6.80;3.70;;;;;;;3.65;95.09;99182.25;4954326;28;20035;-69
2021/12/08 00:45:23;;;;;;;8.90;4.28;;;;;;;3.71;95.49;99163.81;4959715;28;20030;-68
2021/12/08 00:47:49;;;;;;;9.13;3.90;;;;;;;3.72;95.52;99154.38;4971608;28;20030;-69
2021/12/08 00:50:17;;;;;;;6.55;3.55;;;;;;;3.80;95.92;99167.41;4971488;28;20046;-68
2021/12/08 00:52:43;;;;;;;6.35;3.45;;;;;;;3.85;95.95;99175.56;4971563;28;20126;-68
2021/12/08 00:55:11;;;;;;;7.65;3.72;;;;;;;3.90;95.93;99182.88;4972032;28;20109;-68
2021/12/08 00:57:37;;;;;;;7.95;3.80;;;;;;;3.94;96.14;99185.06;4954159;28;20027;-68
2021/12/08 01:00:11;;;;;;;6.65;3.60;;;;;;;3.98;96.16;99185.66;4971945;28;20035;-68
2021/12/08 01:02:39;;;;;;;6.38;3.78;;;;;;;4.00;96.05;99188.88;4971329;28;20035;-68
2021/12/08 01:05:07;;;;;;;6.35;3.40;;;;;;;4.08;96.13;99201.94;4954469;28;20037;-69
2021/12/08 01:07:33;;;;;;;6.15;3.67;;;;;;;4.13;95.64;99199.81;4954171;28;20474;-68
2021/12/08 01:09:58;;;;;;;5.95;3.80;;;;;;;4.15;96.30;99202.25;4954464;28;20027;-69
2021/12/08 01:12:25;;;;;;;6.43;3.30;;;;;;;4.09;95.81;99207.88;4970788;28;20062;-69
2021/12/08 01:14:50;;;;;;;7.88;3.70;;;;;;;4.22;95.89;99214.44;4954476;28;20035;-70
2021/12/08 01:17:15;;;;;;;5.65;3.33;;;;;;;4.25;96.16;99209.06;4971398;28;20029;-69
2021/12/08 01:19:41;;;;;;;6.53;3.50;;;;;;;4.23;96.17;99205.00;4971290;28;20030;-68
2021/12/08 01:22:07;;;;;;;7.47;3.22;;;;;;;4.31;96.03;99217.22;4971822;28;20487;-68
2021/12/08 01:24:32;;;;;;;7.78;3.40;;;;;;;4.32;95.99;99206.00;4959566;28;20022;-69
2021/12/08 01:26:58;;;;;;;6.05;3.13;;;;;;;4.34;96.00;99211.81;4975928;28;20479;-69
2021/12/08 01:29:23;;;;;;;5.78;3.20;;;;;;;4.38;95.56;99208.06;4974982;28;20498;-70
2021/12/08 01:31:49;;;;;;;5.05;3.03;;;;;;;4.41;96.00;99218.06;4975570;28;20378;-69
2021/12/08 01:34:15;;;;;;;4.90;3.00;;;;;;;4.41;95.58;99224.03;4974767;28;20070;-69
2021/12/08 01:36:42;;;;;;;6.60;2.85;;;;;;;4.40;95.75;99212.13;4975624;28;20070;-69
2021/12/08 01:39:08;;;;;;;6.07;2.90;;;;;;;4.48;95.77;99225.16;4975171;28;20498;-69
2021/12/08 01:41:34;;;;;;;5.47;2.67;;;;;;;4.50;95.49;99227.59;4957361;28;20049;-69
2021/12/08 01:46:44;;;;;;;6.85;3.13;;;;;;;4.53;95.73;99235.06;4974293;28;20105;-70
2021/12/08 01:49:10;;;;;;;6.57;2.90;;;;;;;4.57;95.71;99228.72;4960726;28;20422;-69
2021/12/08 01:51:36;;;;;;;6.85;2.90;;;;;;;4.57;95.48;99244.13;4965526;28;20621;-68
2021/12/08 01:54:04;;;;;;;8.50;2.90;;;;;;;4.60;95.46;99238.75;4973054;28;20034;-69
2021/12/08 01:56:31;;;;;;;6.82;2.92;;;;;;;4.59;95.59;99241.44;4971609;28;20038;-70
2021/12/08 01:58:57;;;;;;;7.13;2.95;;;;;;;4.62;95.76;99243.75;4957432;28;20031;-68
2021/12/08 02:01:25;;;;;;;7.35;3.00;;;;;;;4.62;95.39;99246.31;4967514;28;20037;-68
2021/12/08 02:03:52;;;;;;;8.43;3.10;;;;;;;4.63;95.67;99242.81;4974614;28;20466;-69
2021/12/08 02:06:19;;;;;;;8.20;2.97;;;;;;;4.62;95.60;99242.00;4974482;28;20106;-69
2021/12/08 02:08:47;;;;;;;7.00;2.90;;;;;;;4.66;95.64;99251.09;4974745;28;20050;-69
2021/12/08 02:11:13;;;;;;;5.85;2.85;;;;;;;4.67;95.67;99250.13;4974213;28;20039;-68
2021/12/08 02:13:40;;;;;;;8.13;3.22;;;;;;;4.66;95.25;99253.66;4975269;28;20057;-70
2021/12/08 02:16:12;;;;;;;9.45;3.22;;;;;;;4.69;95.34;99263.66;4974476;28;20073;-68
2021/12/08 02:18:40;;;;;;;11.68;3.28;;;;;;;4.69;95.56;99253.38;4956568;28;20384;-68
2021/12/08 02:21:31;;;;;;;9.80;2.95;;;;;;;4.70;95.11;99265.31;4974009;28;20037;-68
2021/12/08 02:24:02;;;;;;;8.48;3.05;;;;;;;4.71;94.92;99271.25;4971822;28;20031;-69
2021/12/08 02:26:28;;;;;;;8.77;3.40;;;;;;;4.70;95.08;99265.31;4957068;28;20027;-69
2021/12/08 02:28:55;;;;;;;8.95;3.25;;;;;;;4.66;95.03;99263.94;4973713;28;20038;-70
2021/12/08 02:31:38;;;;;;;6.90;2.70;;;;;;;4.67;94.32;99270.69;4974015;28;20034;-70
2021/12/08 02:47:52;;;;;;;8.70;2.70;;;;;;;4.74;93.92;99289.78;4975164;28;20090;-70
2021/12/08 02:50:29;;;;;;;6.07;2.40;;;;;;;4.78;93.48;99304.00;4972889;28;20391;-69
2021/12/08 02:52:56;;;;;;;7.82;2.78;;;;;;;4.79;93.43;99310.78;4973750;28;20085;-69
2021/12/08 02:55:22;;;;;;;6.80;2.67;;;;;;;4.73;93.54;99295.88;4953976;28;20389;-68
2021/12/08 02:57:47;;;;;;;9.10;2.92;;;;;;;4.79;93.04;99299.69;4974066;28;20078;-69
2021/12/08 03:00:17;;;;;;;6.00;2.40;;;;;;;4.79;93.13;99305.63;4956888;28;20085;-68
2021/12/08 03:02:42;;;;;;;8.27;2.90;;;;;;;4.74;92.78;99287.22;4973791;28;20077;-69
2021/12/08 03:05:08;;;;;;;9.65;2.67;;;;;;;4.79;92.78;99294.53;4973531;28;20054;-69
2021/12/08 03:07:33;;;;;;;8.38;2.80;;;;;;;4.79;92.60;99299.69;4973866;28;20046;-69
2021/12/08 03:10:14;;;;;;;9.10;2.88;;;;;;;4.83;92.87;99297.69;4974360;28;20031;-69
2021/12/08 03:12:41;;;;;;;8.70;2.78;;;;;;;4.78;92.77;99298.88;4983862;28;20062;-69
2021/12/08 03:15:08;;;;;;;6.15;2.50;;;;;;;4.77;92.47;99281.03;4993371;28;20407;-70
2021/12/08 03:17:34;;;;;;;9.63;2.72;;;;;;;4.80;92.79;99296.97;4992742;28;20030;-68
2021/12/08 03:20:01;;;;;;;7.80;2.38;;;;;;;4.80;92.52;99307.25;4992314;28;20486;-68
2021/12/08 03:22:26;;;;;;;6.72;2.60;;;;;;;4.76;92.22;99311.03;4974709;28;20481;-70
2021/12/08 03:24:53;;;;;;;9.65;2.83;;;;;;;4.78;92.63;99314.28;4993093;28;20109;-70
2021/12/08 03:27:26;;;;;;;9.27;2.67;;;;;;;4.79;92.60;99318.47;4992378;28;20101;-69
2021/12/08 03:29:56;;;;;;;7.43;2.72;;;;;;;4.79;92.23;99321.03;4992951;28;20030;-69
2021/12/08 03:32:35;;;;;;;8.88;2.42;;;;;;;4.79;92.12;99315.91;4989480;28;20033;-70
2021/12/08 03:35:01;;;;;;;;;;;;;;;4.88;92.10;99323.81;4993059;28;20033;-70
2021/12/08 03:37:31;;;;;;;8.70;2.65;;;;;;;4.82;92.01;99319.16;4975813;28;19918;-70
2021/12/08 03:40:00;;;;;;;9.55;2.63;;;;;;;4.81;91.81;99323.47;4988801;28;20080;-69
2021/12/08 03:42:29;;;;;;;8.15;2.75;;;;;;;4.81;91.22;99318.34;4992258;28;20497;-70
2021/12/08 03:44:56;;;;;;;;;;;;;;;4.88;91.74;99323.81;4971343;28;20599;-69
2021/12/08 03:47:28;;;;;;;8.35;2.60;;;;;;;4.79;91.11;99331.31;4992199;28;20417;-68
2021/12/08 03:49:55;;;;;;;8.43;2.63;;;;;;;4.77;90.58;99317.78;4991233;28;20568;-69
2021/12/08 03:52:21;;;;;;;9.30;2.45;;;;;;;4.76;90.71;99321.31;4992818;28;20093;-69
2021/12/08 03:54:46;;;;;;;8.90;2.30;;;;;;;4.76;90.11;99318.75;4992363;28;20470;-69
2021/12/08 03:57:12;;;;;;;7.97;2.33;;;;;;;4.77;89.27;99325.50;4992104;28;20054;-69
2021/12/08 03:59:37;;;;;;;7.53;2.17;;;;;;;4.73;89.47;99321.53;4992443;28;20034;-68
2021/12/08 04:02:04;;;;;;;9.70;2.72;;;;;;;4.66;88.87;99320.41;4991782;28;20038;-69
2021/12/08 04:04:30;;;;;;;5.70;1.95;;;;;;;4.69;89.07;99325.28;4992267;28;20034;-69
2021/12/08 04:06:58;;;;;;;7.70;2.28;;;;;;;4.64;89.11;99324.84;4991820;28;20034;-69
2021/12/08 04:09:39;;;;;;;9.00;2.17;;;;;;;4.61;88.65;99332.81;4992155;28;20077;-69
2021/12/08 04:12:05;;;;;;;10.85;2.25;;;;;;;4.61;88.48;99337.94;4984963;28;20145;-69
2021/12/08 04:14:35;;;;;;;8.38;2.08;;;;;;;4.59;88.03;99334.69;4972357;28;20145;-69
2021/12/08 04:17:14;;;;;;;8.98;2.03;;;;;;;4.55;88.34;99342.78;4972712;28;20553;-69
2021/12/08 04:19:41;;;;;;;7.35;2.30;;;;;;;4.52;88.02;99346.38;4954583;28;20463;-70
2021/12/08 04:22:21;;;;;;;8.90;2.70;;;;;;;4.46;87.76;99341.75;4955518;28;20374;-69
2021/12/08 04:24:48;;;;;;;14.35;7.57;;;;;;;4.43;87.50;99349.69;4972406;28;20037;-69
2021/12/08 04:27:32;;;;;;;7.18;2.33;;;;;;;4.40;87.38;99349.94;4972098;28;20077;-69
2021/12/08 04:29:57;;;;;;;11.15;2.30;;;;;;;4.38;87.50;99352.63;4972037;28;20057;-69
2021/12/08 04:32:27;;;;;;;8.52;2.00;;;;;;;4.34;87.36;99345.28;4954867;28;20058;-69
2021/12/08 04:34:56;;;;;;;8.13;2.40;;;;;;;4.32;87.41;99342.03;4971473;28;20030;-69
2021/12/08 04:37:27;;;;;;;;;;;;;;;4.41;87.95;99354.13;4970763;28;20074;-68
2021/12/08 04:40:10;;;;;;;9.57;2.60;;;;;;;4.21;87.46;99346.25;4973071;28;20008;-70
2021/12/08 04:42:54;;;;;;;10.32;2.40;;;;;;;4.24;87.70;99355.44;4972156;28;20038;-70
2021/12/08 04:45:31;;;;;;;9.55;2.33;;;;;;;4.16;87.57;99355.25;4973131;28;20034;-69
2021/12/08 04:53:05;;;;;;;7.25;2.00;;;;;;;4.15;87.60;99336.47;4958932;28;20026;-69
2021/12/08 05:01:20;;;;;;;8.25;2.35;;;;;;;4.11;87.12;99373.56;4971495;28;20161;-69
2021/12/08 05:09:32;;;;;;;8.98;2.30;;;;;;;4.04;86.95;99364.72;4948381;28;20043;-70
2021/12/08 05:12:01;;;;;;;7.55;2.40;;;;;;;4.00;86.76;99378.72;4971116;28;20133;-69
2021/12/08 05:14:52;;;;;;;11.55;2.20;;;;;;;3.97;86.50;99390.03;4957539;28;20114;-69
2021/12/08 05:17:24;;;;;;;8.07;2.00;;;;;;;3.90;86.64;99378.63;4969966;28;20109;-70
2021/12/08 05:19:55;;;;;;;8.48;2.20;;;;;;;3.94;86.86;99390.25;4961993;28;20031;-69
2021/12/08 05:22:28;;;;;;;7.80;2.00;;;;;;;3.94;86.64;99368.94;4971081;28;20039;-69
2021/12/08 05:24:55;;;;;;;6.82;1.95;;;;;;;3.89;86.27;99386.41;4970139;28;20038;-69
2021/12/08 05:27:29;;;;;;;9.38;2.10;;;;;;;3.88;86.70;99395.06;4971655;28;20034;-69
2021/12/08 05:30:10;;;;;;;8.30;2.00;;;;;;;3.91;86.27;99384.56;4954080;28;20394;-70
2021/12/08 05:32:36;;;;;;;9.63;2.20;;;;;;;3.85;86.50;99379.91;4971214;28;20026;-69
2021/12/08 05:35:06;;;;;;;8.77;2.22;;;;;;;3.82;86.72;99377.56;4949042;28;20023;-70
2021/12/08 05:37:31;;;;;;;9.45;2.25;;;;;;;3.80;86.79;99382.00;4958674;28;20038;-69
2021/12/08 05:39:57;;;;;;;9.25;2.20;;;;;;;3.81;86.50;99391.34;4968655;28;20019;-69
2021/12/08 05:42:27;;;;;;;9.75;2.10;;;;;;;3.76;86.12;99380.59;4958283;28;20495;-69
2021/12/08 05:44:53;;;;;;;9.07;2.20;;;;;;;3.78;86.28;99383.84;4960396;28;20023;-70
2021/12/08 05:47:24;;;;;;;9.20;2.00;;;;;;;3.79;86.30;99395.78;4964315;28;20054;-70
2021/12/08 05:49:51;;;;;;;9.77;2.17;;;;;;;3.75;86.11;99402.88;4949512;28;20039;-70
2021/12/08 05:52:17;;;;;;;10.63;2.30;;;;;;;3.69;86.70;99401.59;4962548;28;20027;-70
2021/12/08 05:54:45;;;;;;;9.20;2.72;;;;;;;3.68;86.23;99405.09;4970919;28;20518;-71
2021/12/08 05:57:13;;;;;;;6.78;2.00;;;;;;;3.65;86.43;99401.94;4969735;28;20034;-71
2021/12/08 05:59:39;;;;;;;10.45;2.30;;;;;;;3.61;86.52;99393.69;4971262;28;20080;-70
2021/12/08 06:02:08;;;;;;;7.72;2.03;;;;;;;3.67;85.95;99405.19;4970622;28;20035;-70
2021/12/08 06:04:33;;;;;;;8.52;1.88;;;;;;;3.61;86.32;99409.06;4970860;28;20440;-70
2021/12/08 06:06:59;;;;;;;10.15;2.28;;;;;;;3.66;86.32;99422.31;4953826;28;20085;-69
2021/12/08 06:09:27;;;;;;;11.48;2.65;;;;;;;3.64;86.32;99425.94;4972397;28;20026;-69
2021/12/08 06:11:53;;;;;;;17.70;7.00;;;;;;;3.61;86.58;99429.56;4953097;28;20046;-70
2021/12/08 06:14:21;;;;;;;10.82;2.58;;;;;;;3.62;86.69;99430.38;4972998;28;20034;-71
2021/12/08 06:16:50;;;;;;;10.43;2.23;;;;;;;3.59;86.70;99421.16;4975223;28;20143;-70
2021/12/08 06:19:17;;;;;;;11.75;2.58;;;;;;;3.61;85.93;99429.56;4973188;28;20042;-69
2021/12/08 06:21:42;;;;;;;8.93;2.15;;;;;;;3.61;86.08;99433.84;4966127;28;20054;-70
2021/12/08 06:24:11;;;;;;;10.85;2.38;;;;;;;3.59;86.36;99441.66;4974420;28;20478;-70
2021/12/08 06:26:37;;;;;;;11.55;2.20;;;;;;;3.58;86.56;99445.16;4973903;28;20046;-69
2021/12/08 06:29:05;;;;;;;9.45;1.98;;;;;;;3.55;86.27;99450.50;4974702;28;20031;-70
2021/12/08 06:31:33;;;;;;;9.68;2.08;;;;;;;3.52;86.62;99450.75;4974980;28;20039;-69
2021/12/08 06:33:59;;;;;;;13.20;2.67;;;;;;;3.52;86.50;99461.00;4974766;28;20022;-69
2021/12/08 06:36:31;;;;;;;9.93;2.30;;;;;;;3.53;86.63;99459.25;4974593;28;20033;-69
2021/12/08 06:38:58;;;;;;;11.05;2.53;;;;;;;3.49;86.72;99471.47;4974141;28;20387;-70
2021/12/08 06:41:31;;;;;;;12.88;2.53;;;;;;;3.46;86.49;99461.47;4974166;28;20034;-70
2021/12/08 06:44:05;;;;;;;10.90;2.60;;;;;;;3.41;86.51;99458.41;4960845;28;20412;-69
2021/12/08 06:46:31;;;;;;;10.48;2.47;;;;;;;3.44;86.39;99459.00;4969051;28;20031;-69
2021/12/08 06:48:59;;;;;;;11.43;2.40;;;;;;;3.40;86.50;99451.66;4973796;28;20038;-69
2021/12/08 06:51:28;;;;;;;13.90;3.20;;;;;;;3.39;86.68;99467.97;4973368;28;20035;-70
2021/12/08 06:53:56;;;;;;;;;;;;;;;3.52;86.74;99465.31;4973843;28;20472;-70
2021/12/08 06:56:29;;;;;;;12.83;2.90;;;;;;;3.39;86.66;99471.34;4969859;28;20053;-70
2021/12/08 06:58:58;;;;;;;10.30;2.45;;;;;;;3.33;85.95;99460.75;4960106;28;20027;-71
2021/12/08 07:02:02;;;;;;;10.57;2.67;;;;;;;3.29;86.38;99459.31;4973845;28;20030;-70
2021/12/08 07:04:35;;;;;;;13.30;4.07;;;;;;;3.31;86.24;99465.13;4973065;28;20399;-70
2021/12/08 07:07:17;;;;;;;11.88;2.60;;;;;;;3.31;85.82;99475.38;4971406;28;20077;-70
2021/12/08 07:09:53;;;;;;;12.40;3.05;;;;;;;3.28;86.06;99473.06;4970848;28;20046;-69
2021/12/08 07:12:21;;;;;;;11.55;2.85;;;;;;;3.27;85.82;99481.66;4973633;28;20522;-72
2021/12/08 07:14:54;;;;;;;10.57;2.65;;;;;;;3.22;86.38;99487.13;4973809;28;20027;-72
2021/12/08 07:17:23;;;;;;;13.07;2.90;;;;;;;3.23;86.00;99496.44;4966545;28;20042;-73
2021/12/08 07:20:03;;;;;;;9.98;2.47;;;;;;;3.18;86.08;99499.34;4962828;28;20119;-73
2021/12/08 07:22:32;;;;;;;10.32;3.05;;;;;;;3.16;86.23;99506.34;4953551;28;20436;-73
2021/12/08 07:25:00;;;;;;;;;;;;;;;3.29;86.54;99505.44;4974334;28;20042;-73
2021/12/08 07:27:29;;;;;;;12.55;2.63;;;;;;;3.13;86.16;99514.22;4972378;28;19920;-73
2021/12/08 07:29:56;;;;;;;;;;;;;;;3.27;86.53;99525.22;4974087;28;20094;-73
2021/12/08 07:32:28;;;;;;;9.95;2.20;;;;;;;3.16;86.07;99529.38;4972859;28;19999;-73
2021/12/08 07:34:56;;;;;;;9.77;2.60;;;;;;;3.02;86.14;99513.34;4965900;28;20027;-73
2021/12/08 07:37:27;;;;;;;10.77;2.53;;;;;;;3.08;86.55;99528.28;4971657;28;20113;-72
2021/12/08 07:39:59;;;;;;;10.55;2.72;;;;;;;3.08;86.01;99546.22;4961529;28;20029;-72
2021/12/08 07:42:31;;;;;;;10.93;2.47;;;;;;;3.04;86.06;99548.19;4970584;28;20026;-73
2021/12/08 07:44:59;;;;;;;10.63;2.40;;;;;;;3.05;85.76;99554.13;4971547;28;20403;-72
2021/12/08 07:47:27;;;;;;;11.13;2.53;;;;;;;2.99;86.24;99550.25;4961560;28;20488;-71
2021/12/08 07:50:01;;;;;;;12.13;2.60;;;;;;;3.02;86.57;99555.16;4972707;28;20039;-74
2021/12/08 07:52:34;;;;;;;11.32;3.80;;;;;;;2.98;86.36;99540.91;4959966;28;20386;-73
2021/12/08 07:55:09;;;;;;;10.98;2.58;;;;;;;2.99;85.91;99550.25;4970660;28;20041;-73
2021/12/08 07:57:35;;;;;;;9.70;2.45;;;;;;;3.00;86.13;99541.66;4973022;28;20034;-73
2021/12/08 08:00:12;;;;;;;9.32;2.42;;;;;;;2.99;86.28;99545.13;4971855;28;20045;-75
2021/12/08 08:02:38;;;;;;;10.73;2.55;;;;;;;2.99;86.14;99546.88;4971901;28;20054;-79
2021/12/08 08:05:05;;;;;;;11.27;2.50;;;;;;;2.95;86.37;99533.47;4971973;28;20143;-79
2021/12/08 08:07:32;;;;;;;9.63;2.42;;;;;;;2.91;86.22;99532.03;4966889;28;20486;-80
2021/12/08 08:10:00;;;;;;;11.55;2.47;;;;;;;2.99;85.73;99542.56;4972054;28;20474;-78
2021/12/08 08:12:30;;;;;;;8.05;1.98;;;;;;;3.04;86.16;99547.34;4971684;28;20057;-82
2021/12/08 08:15:00;;;;;;;11.15;2.38;;;;;;;3.04;85.89;99553.31;4965914;28;20038;-80
2021/12/08 08:17:35;;;;;;;7.28;2.40;;;;;;;3.05;85.55;99549.81;4971610;28;20023;-79
2021/12/08 08:20:12;;;;;;;9.38;2.20;;;;;;;3.09;86.00;99561.47;4965233;28;20043;-80
2021/12/08 08:22:39;;;;;;;8.88;2.17;;;;;;;3.11;86.04;99554.50;4963844;28;20027;-80
2021/12/08 08:25:09;;;;;;;10.20;2.58;;;;;;;3.10;85.84;99547.75;4959417;28;20432;-80
2021/12/08 08:27:35;;;;;;;10.82;2.72;;;;;;;3.11;85.10;99544.28;4972781;28;20375;-81
2021/12/08 08:30:02;;;;;;;11.23;2.70;;;;;;;3.05;85.26;99539.59;4972827;28;20483;-80
2021/12/08 08:32:33;;;;;;;10.65;2.58;;;;;;;3.12;85.34;99555.34;4965502;28;20140;-78
2021/12/08 08:35:25;;;;;;;8.82;2.88;;;;;;;3.15;85.40;99555.09;4948683;28;20046;-75
2021/12/08 08:37:51;;;;;;;11.27;2.97;;;;;;;3.11;84.59;99544.28;4962921;28;20089;-79
2021/12/08 08:40:23;;;;;;;12.38;2.95;;;;;;;3.12;85.50;99532.28;4972174;28;20022;-76
2021/12/08 08:42:51;;;;;;;9.65;2.47;;;;;;;3.13;85.33;99544.97;4971093;28;20066;-75
2021/12/08 08:45:22;;;;;;;10.85;2.70;;;;;;;3.16;84.61;99546.50;4971218;28;20111;-79
2021/12/08 08:47:53;;;;;;;8.90;2.55;;;;;;;3.14;85.05;99551.72;4953120;28;20023;-79
2021/12/08 08:50:51;;;;;;;7.50;2.00;;;;;;;3.16;85.13;99542.19;4953262;28;20065;-77
2021/12/08 08:53:20;;;;;;;9.60;2.75;;;;;;;3.19;84.74;99536.03;4958275;28;20050;-81
2021/12/08 08:55:52;;;;;;;8.98;2.42;;;;;;;3.22;84.15;99530.69;4972001;28;20049;-80
2021/12/08 08:58:20;;;;;;;9.70;2.42;;;;;;;3.23;84.64;99541.75;4971933;28;20061;-79
2021/12/08 09:01:05;;;;;;;11.00;2.60;;;;;;;3.25;84.61;99539.91;4948840;28;20451;-79
2021/12/08 09:03:40;;;;;;;10.05;2.63;;;;;;;3.24;84.62;99549.31;4958521;28;20114;-80
2021/12/08 09:06:10;;;;;;;9.57;2.38;;;;;;;3.29;84.46;99561.81;4968979;28;20035;-76
2021/12/08 09:08:38;;;;;;;10.05;2.40;;;;;;;3.28;84.44;99555.06;4965004;28;20027;-74
2021/12/08 09:11:15;;;;;;;9.07;2.25;;;;;;;3.28;84.69;99549.94;4961791;28;20018;-71
2021/12/08 09:13:51;;;;;;;10.07;2.45;;;;;;;3.30;84.56;99548.06;4983217;28;20102;-72
2021/12/08 09:16:24;;;;;;;9.93;2.45;;;;;;;3.35;84.45;99556.25;4991416;28;20098;-71
2021/12/08 09:21:58;;;;;;;7.38;2.17;;;;;;;3.39;84.45;99568.75;5241879;23;20509;-72
2021/12/08 09:24:39;;;;;;;8.23;2.15;;;;;;;3.32;84.36;99561.56;5002988;23;20043;-75
2021/12/08 09:27:10;;;;;;;8.30;2.25;;;;;;;3.21;84.27;99541.84;4969132;28;20038;-76
2021/12/08 09:29:55;;;;;;;8.98;2.20;;;;;;;3.29;83.54;99546.44;4970345;28;20475;-76
2021/12/08 09:32:41;;;;;;;11.32;2.38;;;;;;;3.36;83.71;99552.75;4952584;28;20038;-75
2021/12/08 09:35:31;;;;;;;10.48;2.50;;;;;;;3.45;84.21;99562.34;4965649;28;20074;-76
2021/12/08 09:38:15;;;;;;;8.95;2.33;;;;;;;3.37;84.21;99554.38;4971509;28;20035;-75
2021/12/08 09:40:57;;;;;;;9.20;2.10;;;;;;;3.57;83.69;99576.03;4961468;28;20031;-75
2021/12/08 09:43:33;;;;;;;8.05;2.30;;;;;;;3.67;83.90;99608.59;4972161;28;20109;-75
2021/12/08 09:46:13;;;;;;;10.82;2.58;;;;;;;3.57;83.10;99565.78;4957081;28;20431;-75
2021/12/08 09:48:45;;;;;;;10.20;2.65;;;;;;;3.58;83.53;99562.28;4946080;28;20582;-75
2021/12/08 09:51:13;;;;;;;10.98;2.38;;;;;;;3.61;83.37;99549.22;4975874;28;20034;-76
2021/12/08 09:53:39;;;;;;;9.25;2.10;;;;;;;3.72;82.51;99565.44;4957166;28;20166;-76
2021/12/08 09:56:46;;;;;;;11.73;2.40;;;;;;;3.66;82.97;99542.81;4957594;28;20031;-77
2021/12/08 10:03:13;;;;;;;7.35;2.10;;;;;;;3.73;82.42;99535.53;4926711;29;20109;-77
2021/12/08 10:05:52;;;;;;;7.40;1.83;;;;;;;3.76;81.87;99524.22;5057843;23;20414;-76
2021/12/08 10:08:38;;;;;;;;;;;;;;;4.02;83.34;99556.44;4970128;28;20537;-77
2021/12/08 10:12:12;;;;;;;6.25;2.25;;;;;;;3.87;82.75;99522.47;5002927;28;20423;-77
2021/12/08 10:19:22;;;;;;;7.88;2.45;;;;;;;3.95;82.20;99504.75;4936066;29;20138;-78
2021/12/08 10:21:53;;;;;;;9.10;2.03;;;;;;;3.97;81.70;99517.50;4898797;29;20036;-76
2021/12/08 10:24:25;;;;;;;10.60;1.95;;;;;;;4.00;81.17;99522.38;4919940;28;20043;-76
2021/12/08 10:26:53;;;;;;;9.88;2.10;;;;;;;4.01;80.54;99524.00;4971776;28;20023;-76
2021/12/08 10:29:27;;;;;;;8.55;1.98;;;;;;;4.07;80.24;99513.31;4983489;28;20053;-75
2021/12/08 10:31:54;;;;;;;7.97;2.25;;;;;;;4.07;81.16;99505.59;4981428;28;20120;-75
2021/12/08 10:34:34;;;;;;;8.68;1.95;;;;;;;4.07;81.02;99503.03;4991702;28;20042;-76
2021/12/08 10:37:17;;;;;;;8.45;2.20;;;;;;;4.15;80.47;99503.25;4993531;28;20068;-76
2021/12/08 10:39:59;;;;;;;7.88;2.10;;;;;;;4.13;80.78;99494.88;4975229;28;20030;-77
2021/12/08 10:42:45;;;;;;;7.93;2.03;;;;;;;4.22;81.06;99496.72;4974671;28;20151;-76
2021/12/08 10:45:23;;;;;;;8.52;2.30;;;;;;;4.25;80.69;99491.38;4988403;28;20062;-77
2021/12/08 10:47:55;;;;;;;6.20;1.92;;;;;;;4.47;80.58;99525.63;4973906;28;20076;-78
2021/12/08 10:55:59;;;;;;;12.02;2.45;;;;;;;4.44;79.82;99510.47;4988539;28;20041;-77
2021/12/08 10:58:39;;;;;;;7.28;1.98;;;;;;;4.59;79.36;99540.13;4992239;28;20030;-77
2021/12/08 11:01:16;;;;;;;8.48;2.20;;;;;;;4.60;79.91;99546.06;4970181;28;20045;-77
2021/12/08 11:03:51;;;;;;;8.45;2.25;;;;;;;4.53;79.96;99532.91;4970077;28;20404;-76
2021/12/08 11:06:19;;;;;;;6.25;2.10;;;;;;;4.51;79.75;99532.19;4981962;28;20054;-76
2021/12/08 11:09:01;;;;;;;8.90;2.20;;;;;;;4.57;79.92;99546.28;4955047;28;20031;-76
2021/12/08 11:11:45;;;;;;;;;;;;;;;;;;;;;
2021/12/08 11:14:14;;;;;;;6.65;2.17;;;;;;;4.62;79.31;99550.13;4973278;28;20026;-77
2021/12/08 11:16:47;;;;;;;8.60;2.65;;;;;;;4.55;80.32;99543.84;4955355;28;20034;-77
2021/12/08 11:19:32;;;;;;;5.82;2.30;;;;;;;4.66;80.00;99571.28;4964295;28;20129;-78
2021/12/08 11:22:03;;;;;;;6.60;1.83;;;;;;;4.62;79.02;99555.28;4973262;28;20027;-76
2021/12/08 11:24:45;;;;;;;8.90;2.10;;;;;;;4.68;79.09;99567.66;4963033;28;20586;-77
2021/12/08 11:27:34;;;;;;;5.50;2.10;;;;;;;4.94;80.06;99601.59;4970766;28;20100;-76
2021/12/08 11:30:28;;;;;;;7.03;1.90;;;;;;;4.96;79.50;99594.56;4954320;28;20043;-77
2021/12/08 11:33:16;;;;;;;8.45;2.20;;;;;;;4.91;80.66;99585.59;4955406;28;20026;-77
2021/12/08 11:35:46;;;;;;;7.47;2.50;;;;;;;4.80;80.01;99574.41;4945464;28;20028;-77
2021/12/08 11:38:30;;;;;;;8.70;1.88;;;;;;;5.01;79.77;99605.31;4953927;28;20018;-76
2021/12/08 11:41:34;;;;;;;9.23;2.40;;;;;;;4.87;79.24;99579.06;4962271;28;20167;-76
2021/12/08 11:44:11;;;;;;;7.15;2.00;;;;;;;4.85;78.83;99574.03;4946029;28;20046;-77
2021/12/08 11:46:49;;;;;;;6.68;1.92;;;;;;;4.87;78.94;99584.19;4959327;28;20045;-77
2021/12/08 11:49:27;;;;;;;5.50;2.10;;;;;;;4.89;78.87;99592.63;4956771;28;20089;-77
2021/12/08 11:52:18;;;;;;;8.05;1.90;;;;;;;4.92;79.15;99597.50;4958861;28;20093;-76
2021/12/08 11:54:56;;;;;;;8.02;2.03;;;;;;;4.95;79.24;99599.84;4971555;28;20031;-77
2021/12/08 11:57:40;;;;;;;16.15;7.32;;;;;;;4.89;77.83;99602.88;4973232;28;20471;-76
2021/12/08 12:00:18;;;;;;;7.45;2.20;;;;;;;4.93;78.14;99604.25;4955032;28;20035;-77
2021/12/08 12:03:04;;;;;;;6.53;1.90;;;;;;;5.00;78.66;99611.41;4972374;28;20033;-77
2021/12/08 12:05:41;;;;;;;6.00;1.77;;;;;;;5.20;78.49;99640.66;4961220;28;20305;-76
2021/12/08 12:08:33;;;;;;;5.30;1.90;;;;;;;5.13;78.66;99631.81;4970558;28;20047;-76
2021/12/08 12:11:01;;;;;;;7.30;1.80;;;;;;;5.08;78.44;99623.63;4967977;28;20042;-76
2021/12/08 12:13:34;;;;;;;7.35;1.65;;;;;;;5.07;78.25;99627.16;4949778;28;20128;-77
2021/12/08 12:16:08;;;;;;;6.90;2.03;;;;;;;5.09;78.42;99630.41;4953389;28;20426;-76
2021/12/08 12:18:36;;;;;;;6.88;1.88;;;;;;;5.09;78.58;99627.84;4971913;28;20505;-77
2021/12/08 12:21:29;;;;;;;4.93;1.80;;;;;;;5.32;78.50;99670.56;4954717;28;20485;-77
2021/12/08 12:24:27;;;;;;;5.90;2.08;;;;;;;5.27;78.59;99672.66;4967448;28;20074;-76
2021/12/08 12:27:24;;;;;;;7.43;2.05;;;;;;;5.30;78.57;99679.34;4974572;28;20186;-76
2021/12/08 12:30:11;;;;;;;7.57;1.70;;;;;;;5.27;77.64;99677.81;4953424;28;20035;-76
2021/12/08 12:32:57;;;;;;;7.57;2.17;;;;;;;5.06;78.25;99652.03;4972706;28;20031;-76
2021/12/08 12:35:23;;;;;;;6.60;1.90;;;;;;;5.27;78.09;99690.66;4970788;28;20019;-76
2021/12/08 12:38:04;;;;;;;6.90;2.15;;;;;;;5.15;77.93;99670.25;4971584;28;20038;-76
2021/12/08 12:40:40;;;;;;;6.63;2.28;;;;;;;5.06;77.65;99658.94;4953495;28;20038;-76
2021/12/08 12:43:12;;;;;;;6.40;1.98;;;;;;;5.15;77.70;99670.25;4971164;28;20070;-75
2021/12/08 12:45:47;;;;;;;6.38;2.33;;;;;;;5.07;77.98;99656.25;4962960;28;20069;-77
2021/12/08 12:48:27;;;;;;;6.72;1.98;;;;;;;5.13;78.47;99657.50;4968358;28;20035;-77
2021/12/08 12:51:10;;;;;;;7.43;2.10;;;;;;;5.20;77.92;99673.28;4947251;28;20415;-76
2021/12/08 12:53:40;;;;;;;4.75;1.98;;;;;;;5.27;78.88;99679.56;4951014;28;20085;-74
2021/12/08 12:56:10;;;;;;;8.77;2.65;;;;;;;5.21;78.20;99660.28;4962013;28;20022;-74
2021/12/08 12:59:10;;;;;;;8.40;2.30;;;;;;;5.38;77.14;99686.44;4966879;28;20538;-75
2021/12/08 13:01:43;;;;;;;7.72;2.20;;;;;;;5.26;77.08;99658.19;4971058;28;20081;-75